sensor_id;sensor_type;location;lat;lon;timestamp;P1;P2;P0
36453;PMS5003;22478;51.740;-1.314;2024-01-15T00:00:21;6;6;
36453;PMS5003;22478;51.740;-1.314;2024-01-15T00:02:49;10;5;
36453;PMS5003;22478;51.740;-1.314;2024-01-15T00:05:16;6;5;
36453;PMS5003;22478;51.740;-1.314;2024-01-15T00:07:43;8;5;
36453;PMS5003;22478;51.740;-1.314;2024-01-15T00:10:10;5;5;
36453;PMS5003;22478;51.740;-1.314;2024-01-15T00:12:37;6;6;
36453;PMS5003;22478;51.740;-1.314;2024-01-15T00:15:05;6;6;
36453;PMS5003;22478;51.740;-1.314;2024-01-15T00:17:33;7;5;
36453;PMS5003;22478;51.740;-1.314;2024-01-15T00:20:00;12;5;
36453;PMS5003;22478;51.740;-1.314;2024-01-15T00:22:27;6;6;
36453;PMS5003;22478;51.740;-1.314;2024-01-15T00:24:55;3;3;
36453;PMS5003;22478;51.740;-1.314;2024-01-15T00:27:22;3;3;
36453;PMS5003;22478;51.740;-1.314;2024-01-15T00:29:49;5;3;
36453;PMS5003;22478;51.740;-1.314;2024-01-15T00:32:17;3;3;
36453;PMS5003;22478;51.740;-1.314;2024-01-15T00:34:45;4;4;
36453;PMS5003;22478;51.740;-1.314;2024-01-15T00:37:12;5;5;
36453;PMS5003;22478;51.740;-1.314;2024-01-15T00:39:39;5;3;
36453;PMS5003;22478;51.740;-1.314;2024-01-15T00:42:07;3;3;
36453;PMS5003;22478;51.740;-1.314;2024-01-15T00:44:34;5;4;
36453;PMS5003;22478;51.740;-1.314;2024-01-15T00:47:01;5;5;
36453;PMS5003;22478;51.740;-1.314;2024-01-15T00:49:29;5;4;
36453;PMS5003;22478;51.740;-1.314;2024-01-15T00:51:56;9;4;
36453;PMS5003;22478;51.740;-1.314;2024-01-15T00:54:23;2;2;
36453;PMS5003;22478;51.740;-1.314;2024-01-15T00:56:50;4;4;
36453;PMS5003;22478;51.740;-1.314;2024-01-15T00:59:18;3;3;
36453;PMS5003;22478;51.740;-1.314;2024-01-15T01:01:45;6;3;
36453;PMS5003;22478;51.740;-1.314;2024-01-15T01:04:13;8;5;
36453;PMS5003;22478;51.740;-1.314;2024-01-15T01:06:40;3;3;
36453;PMS5003;22478;51.740;-1.314;2024-01-15T01:09:07;4;3;
36453;PMS5003;22478;51.740;-1.314;2024-01-15T01:11:35;4;3;
36453;PMS5003;22478;51.740;-1.314;2024-01-15T01:14:02;3;2;
36453;PMS5003;22478;51.740;-1.314;2024-01-15T01:16:29;4;4;
36453;PMS5003;22478;51.740;-1.314;2024-01-15T01:18:57;8;8;
36453;PMS5003;22478;51.740;-1.314;2024-01-15T01:21:24;4;4;
36453;PMS5003;22478;51.740;-1.314;2024-01-15T01:23:51;4;3;
36453;PMS5003;22478;51.740;-1.314;2024-01-15T01:26:19;4;3;
36453;PMS5003;22478;51.740;-1.314;2024-01-15T01:28:46;4;4;
36453;PMS5003;22478;51.740;-1.314;2024-01-15T01:31:13;4;4;
36453;PMS5003;22478;51.740;-1.314;2024-01-15T01:33:40;2;2;
36453;PMS5003;22478;51.740;-1.314;2024-01-15T01:36:08;3;3;
36453;PMS5003;22478;51.740;-1.314;2024-01-15T01:38:36;3;3;
36453;PMS5003;22478;51.740;-1.314;2024-01-15T01:41:03;5;3;
36453;PMS5003;22478;51.740;-1.314;2024-01-15T01:43:30;2;2;
36453;PMS5003;22478;51.740;-1.314;2024-01-15T01:45:58;3;3;
36453;PMS5003;22478;51.740;-1.314;2024-01-15T01:48:27;9;4;
36453;PMS5003;22478;51.740;-1.314;2024-01-15T01:50:54;3;3;
36453;PMS5003;22478;51.740;-1.314;2024-01-15T01:53:24;5;5;
36453;PMS5003;22478;51.740;-1.314;2024-01-15T01:55:53;9;4;
36453;PMS5003;22478;51.740;-1.314;2024-01-15T01:58:22;3;3;
36453;PMS5003;22478;51.740;-1.314;2024-01-15T02:00:50;5;3;
36453;PMS5003;22478;51.740;-1.314;2024-01-15T02:03:17;5;4;
36453;PMS5003;22478;51.740;-1.314;2024-01-15T02:05:45;5;5;
36453;PMS5003;22478;51.740;-1.314;2024-01-15T02:08:15;7;7;
36453;PMS5003;22478;51.740;-1.314;2024-01-15T02:10:42;6;5;
36453;PMS5003;22478;51.740;-1.314;2024-01-15T02:13:10;5;4;
36453;PMS5003;22478;51.740;-1.314;2024-01-15T02:15:37;4;4;
36453;PMS5003;22478;51.740;-1.314;2024-01-15T02:18:05;3;3;
36453;PMS5003;22478;51.740;-1.314;2024-01-15T02:20:33;4;4;
36453;PMS5003;22478;51.740;-1.314;2024-01-15T02:23:03;5;5;
36453;PMS5003;22478;51.740;-1.314;2024-01-15T02:25:34;5;5;
36453;PMS5003;22478;51.740;-1.314;2024-01-15T02:28:03;3;2;
36453;PMS5003;22478;51.740;-1.314;2024-01-15T02:30:30;4;4;
36453;PMS5003;22478;51.740;-1.314;2024-01-15T02:32:59;3;3;
36453;PMS5003;22478;51.740;-1.314;2024-01-15T02:35:26;3;2;
36453;PMS5003;22478;51.740;-1.314;2024-01-15T02:37:53;3;3;
36453;PMS5003;22478;51.740;-1.314;2024-01-15T02:40:20;3;3;
36453;PMS5003;22478;51.740;-1.314;2024-01-15T02:42:48;2;2;
36453;PMS5003;22478;51.740;-1.314;2024-01-15T02:45:15;4;4;
36453;PMS5003;22478;51.740;-1.314;2024-01-15T02:47:43;4;3;
36453;PMS5003;22478;51.740;-1.314;2024-01-15T02:50:11;4;3;
36453;PMS5003;22478;51.740;-1.314;2024-01-15T02:52:38;2;2;
36453;PMS5003;22478;51.740;-1.314;2024-01-15T02:55:06;3;3;
36453;PMS5003;22478;51.740;-1.314;2024-01-15T02:57:33;4;2;
36453;PMS5003;22478;51.740;-1.314;2024-01-15T03:00:01;3;3;
36453;PMS5003;22478;51.740;-1.314;2024-01-15T03:02:29;4;3;
36453;PMS5003;22478;51.740;-1.314;2024-01-15T03:04:56;3;3;
36453;PMS5003;22478;51.740;-1.314;2024-01-15T03:07:24;3;3;
36453;PMS5003;22478;51.740;-1.314;2024-01-15T03:09:51;3;3;
36453;PMS5003;22478;51.740;-1.314;2024-01-15T03:12:18;2;2;
36453;PMS5003;22478;51.740;-1.314;2024-01-15T03:14:45;3;2;
36453;PMS5003;22478;51.740;-1.314;2024-01-15T03:17:13;9;5;
36453;PMS5003;22478;51.740;-1.314;2024-01-15T03:19:40;3;3;
36453;PMS5003;22478;51.740;-1.314;2024-01-15T03:22:07;4;3;
36453;PMS5003;22478;51.740;-1.314;2024-01-15T03:24:35;4;4;
36453;PMS5003;22478;51.740;-1.314;2024-01-15T03:27:02;4;2;
36453;PMS5003;22478;51.740;-1.314;2024-01-15T03:29:30;3;1;
36453;PMS5003;22478;51.740;-1.314;2024-01-15T03:31:57;2;1;
36453;PMS5003;22478;51.740;-1.314;2024-01-15T03:34:25;2;2;
36453;PMS5003;22478;51.740;-1.314;2024-01-15T03:36:52;3;3;
36453;PMS5003;22478;51.740;-1.314;2024-01-15T03:39:19;1;1;
36453;PMS5003;22478;51.740;-1.314;2024-01-15T03:41:47;3;3;
36453;PMS5003;22478;51.740;-1.314;2024-01-15T03:44:14;3;1;
36453;PMS5003;22478;51.740;-1.314;2024-01-15T03:46:41;3;2;
36453;PMS5003;22478;51.740;-1.314;2024-01-15T03:49:08;2;2;
36453;PMS5003;22478;51.740;-1.314;2024-01-15T03:51:36;3;3;
36453;PMS5003;22478;51.740;-1.314;2024-01-15T03:54:04;4;2;
36453;PMS5003;22478;51.740;-1.314;2024-01-15T03:56:31;2;2;
36453;PMS5003;22478;51.740;-1.314;2024-01-15T03:58:59;3;2;
36453;PMS5003;22478;51.740;-1.314;2024-01-15T04:01:26;2;2;
36453;PMS5003;22478;51.740;-1.314;2024-01-15T04:03:53;2;2;
36453;PMS5003;22478;51.740;-1.314;2024-01-15T04:06:21;2;2;
36453;PMS5003;22478;51.740;-1.314;2024-01-15T04:08:48;5;3;
36453;PMS5003;22478;51.740;-1.314;2024-01-15T04:11:16;2;2;
36453;PMS5003;22478;51.740;-1.314;2024-01-15T04:13:43;3;3;
36453;PMS5003;22478;51.740;-1.314;2024-01-15T04:16:11;2;2;
36453;PMS5003;22478;51.740;-1.314;2024-01-15T04:18:38;2;2;
36453;PMS5003;22478;51.740;-1.314;2024-01-15T04:21:05;4;3;
36453;PMS5003;22478;51.740;-1.314;2024-01-15T04:23:33;2;2;
36453;PMS5003;22478;51.740;-1.314;2024-01-15T04:26:00;4;2;
36453;PMS5003;22478;51.740;-1.314;2024-01-15T04:28:28;2;2;
36453;PMS5003;22478;51.740;-1.314;2024-01-15T04:30:55;4;2;
36453;PMS5003;22478;51.740;-1.314;2024-01-15T04:33:22;4;3;
36453;PMS5003;22478;51.740;-1.314;2024-01-15T04:35:50;3;2;
36453;PMS5003;22478;51.740;-1.314;2024-01-15T04:38:17;3;3;
36453;PMS5003;22478;51.740;-1.314;2024-01-15T04:40:44;5;3;
36453;PMS5003;22478;51.740;-1.314;2024-01-15T04:43:12;7;5;
36453;PMS5003;22478;51.740;-1.314;2024-01-15T04:45:39;3;3;
36453;PMS5003;22478;51.740;-1.314;2024-01-15T04:48:06;4;4;
36453;PMS5003;22478;51.740;-1.314;2024-01-15T04:50:34;5;3;
36453;PMS5003;22478;51.740;-1.314;2024-01-15T04:53:01;4;4;
36453;PMS5003;22478;51.740;-1.314;2024-01-15T04:55:28;3;3;
36453;PMS5003;22478;51.740;-1.314;2024-01-15T04:57:56;4;4;
36453;PMS5003;22478;51.740;-1.314;2024-01-15T05:00:23;3;3;
36453;PMS5003;22478;51.740;-1.314;2024-01-15T05:02:51;5;5;
36453;PMS5003;22478;51.740;-1.314;2024-01-15T05:05:18;3;3;
36453;PMS5003;22478;51.740;-1.314;2024-01-15T05:07:46;3;3;
36453;PMS5003;22478;51.740;-1.314;2024-01-15T05:10:13;3;3;
36453;PMS5003;22478;51.740;-1.314;2024-01-15T05:12:41;4;4;
36453;PMS5003;22478;51.740;-1.314;2024-01-15T05:15:08;3;3;
36453;PMS5003;22478;51.740;-1.314;2024-01-15T05:17:35;3;3;
36453;PMS5003;22478;51.740;-1.314;2024-01-15T05:20:03;8;7;
36453;PMS5003;22478;51.740;-1.314;2024-01-15T05:22:31;7;6;
36453;PMS5003;22478;51.740;-1.314;2024-01-15T05:24:58;6;6;
36453;PMS5003;22478;51.740;-1.314;2024-01-15T05:27:25;4;4;
36453;PMS5003;22478;51.740;-1.314;2024-01-15T05:29:53;6;6;
36453;PMS5003;22478;51.740;-1.314;2024-01-15T05:32:20;8;8;
36453;PMS5003;22478;51.740;-1.314;2024-01-15T05:34:48;7;6;
36453;PMS5003;22478;51.740;-1.314;2024-01-15T05:37:15;8;8;
36453;PMS5003;22478;51.740;-1.314;2024-01-15T05:39:42;7;7;
36453;PMS5003;22478;51.740;-1.314;2024-01-15T05:42:10;9;6;
36453;PMS5003;22478;51.740;-1.314;2024-01-15T05:44:37;12;8;
36453;PMS5003;22478;51.740;-1.314;2024-01-15T05:47:05;9;9;
36453;PMS5003;22478;51.740;-1.314;2024-01-15T05:49:32;8;8;
36453;PMS5003;22478;51.740;-1.314;2024-01-15T05:51:59;9;9;
36453;PMS5003;22478;51.740;-1.314;2024-01-15T05:54:26;7;7;
36453;PMS5003;22478;51.740;-1.314;2024-01-15T05:56:54;8;8;
36453;PMS5003;22478;51.740;-1.314;2024-01-15T05:59:21;8;7;
36453;PMS5003;22478;51.740;-1.314;2024-01-15T06:01:48;15;9;
36453;PMS5003;22478;51.740;-1.314;2024-01-15T06:04:16;8;8;
36453;PMS5003;22478;51.740;-1.314;2024-01-15T06:06:43;13;8;
36453;PMS5003;22478;51.740;-1.314;2024-01-15T06:09:11;10;7;
36453;PMS5003;22478;51.740;-1.314;2024-01-15T06:11:38;10;10;
36453;PMS5003;22478;51.740;-1.314;2024-01-15T06:14:06;9;8;
36453;PMS5003;22478;51.740;-1.314;2024-01-15T06:16:33;10;9;
36453;PMS5003;22478;51.740;-1.314;2024-01-15T06:19:00;9;7;
36453;PMS5003;22478;51.740;-1.314;2024-01-15T06:21:28;9;7;
36453;PMS5003;22478;51.740;-1.314;2024-01-15T06:23:55;12;9;
36453;PMS5003;22478;51.740;-1.314;2024-01-15T06:26:22;10;8;
36453;PMS5003;22478;51.740;-1.314;2024-01-15T06:28:49;7;7;
36453;PMS5003;22478;51.740;-1.314;2024-01-15T06:31:17;9;7;
36453;PMS5003;22478;51.740;-1.314;2024-01-15T06:33:44;10;6;
36453;PMS5003;22478;51.740;-1.314;2024-01-15T06:36:12;9;8;
36453;PMS5003;22478;51.740;-1.314;2024-01-15T06:38:39;9;7;
36453;PMS5003;22478;51.740;-1.314;2024-01-15T06:41:06;6;6;
36453;PMS5003;22478;51.740;-1.314;2024-01-15T06:43:34;9;6;
36453;PMS5003;22478;51.740;-1.314;2024-01-15T06:46:01;7;7;
36453;PMS5003;22478;51.740;-1.314;2024-01-15T06:48:29;6;6;
36453;PMS5003;22478;51.740;-1.314;2024-01-15T06:50:56;4;4;
36453;PMS5003;22478;51.740;-1.314;2024-01-15T06:53:23;4;4;
36453;PMS5003;22478;51.740;-1.314;2024-01-15T06:55:51;10;7;
36453;PMS5003;22478;51.740;-1.314;2024-01-15T06:58:18;4;3;
36453;PMS5003;22478;51.740;-1.314;2024-01-15T07:00:46;4;4;
36453;PMS5003;22478;51.740;-1.314;2024-01-15T07:03:13;5;4;
36453;PMS5003;22478;51.740;-1.314;2024-01-15T07:05:40;7;4;
36453;PMS5003;22478;51.740;-1.314;2024-01-15T07:08:08;5;5;
36453;PMS5003;22478;51.740;-1.314;2024-01-15T07:10:35;5;3;
36453;PMS5003;22478;51.740;-1.314;2024-01-15T07:13:02;8;5;
36453;PMS5003;22478;51.740;-1.314;2024-01-15T07:15:30;3;3;
36453;PMS5003;22478;51.740;-1.314;2024-01-15T07:17:57;3;3;
36453;PMS5003;22478;51.740;-1.314;2024-01-15T07:20:24;4;4;
36453;PMS5003;22478;51.740;-1.314;2024-01-15T07:22:52;5;4;
36453;PMS5003;22478;51.740;-1.314;2024-01-15T07:25:19;4;4;
36453;PMS5003;22478;51.740;-1.314;2024-01-15T07:27:46;4;4;
36453;PMS5003;22478;51.740;-1.314;2024-01-15T07:30:13;10;6;
36453;PMS5003;22478;51.740;-1.314;2024-01-15T07:32:41;7;3;
36453;PMS5003;22478;51.740;-1.314;2024-01-15T07:35:08;6;4;
36453;PMS5003;22478;51.740;-1.314;2024-01-15T07:37:35;6;6;
36453;PMS5003;22478;51.740;-1.314;2024-01-15T07:40:03;9;4;
36453;PMS5003;22478;51.740;-1.314;2024-01-15T07:42:31;6;6;
36453;PMS5003;22478;51.740;-1.314;2024-01-15T07:44:58;7;4;
36453;PMS5003;22478;51.740;-1.314;2024-01-15T07:47:25;9;8;
36453;PMS5003;22478;51.740;-1.314;2024-01-15T07:49:53;7;4;
36453;PMS5003;22478;51.740;-1.314;2024-01-15T07:52:20;7;4;
36453;PMS5003;22478;51.740;-1.314;2024-01-15T07:54:47;4;4;
36453;PMS5003;22478;51.740;-1.314;2024-01-15T07:57:15;6;6;
36453;PMS5003;22478;51.740;-1.314;2024-01-15T07:59:42;4;4;
36453;PMS5003;22478;51.740;-1.314;2024-01-15T08:02:09;7;4;
36453;PMS5003;22478;51.740;-1.314;2024-01-15T08:04:37;7;7;
36453;PMS5003;22478;51.740;-1.314;2024-01-15T08:07:04;7;3;
36453;PMS5003;22478;51.740;-1.314;2024-01-15T08:09:31;7;3;
36453;PMS5003;22478;51.740;-1.314;2024-01-15T08:11:59;4;4;
36453;PMS5003;22478;51.740;-1.314;2024-01-15T08:14:26;4;4;
36453;PMS5003;22478;51.740;-1.314;2024-01-15T08:16:53;6;4;
36453;PMS5003;22478;51.740;-1.314;2024-01-15T08:19:21;4;4;
36453;PMS5003;22478;51.740;-1.314;2024-01-15T08:21:48;8;7;
36453;PMS5003;22478;51.740;-1.314;2024-01-15T08:24:15;8;3;
36453;PMS5003;22478;51.740;-1.314;2024-01-15T08:26:43;9;6;
36453;PMS5003;22478;51.740;-1.314;2024-01-15T08:29:10;7;4;
36453;PMS5003;22478;51.740;-1.314;2024-01-15T08:31:38;6;6;
36453;PMS5003;22478;51.740;-1.314;2024-01-15T08:34:05;6;3;
36453;PMS5003;22478;51.740;-1.314;2024-01-15T08:36:32;3;3;
36453;PMS5003;22478;51.740;-1.314;2024-01-15T08:39:00;6;3;
36453;PMS5003;22478;51.740;-1.314;2024-01-15T08:41:27;6;6;
36453;PMS5003;22478;51.740;-1.314;2024-01-15T08:43:54;3;3;
36453;PMS5003;22478;51.740;-1.314;2024-01-15T08:46:22;3;2;
36453;PMS5003;22478;51.740;-1.314;2024-01-15T08:48:49;3;3;
36453;PMS5003;22478;51.740;-1.314;2024-01-15T08:51:16;4;3;
36453;PMS5003;22478;51.740;-1.314;2024-01-15T08:53:44;2;2;
36453;PMS5003;22478;51.740;-1.314;2024-01-15T08:56:11;2;2;
36453;PMS5003;22478;51.740;-1.314;2024-01-15T08:58:39;2;2;
36453;PMS5003;22478;51.740;-1.314;2024-01-15T09:01:06;3;3;
36453;PMS5003;22478;51.740;-1.314;2024-01-15T09:03:33;4;4;
36453;PMS5003;22478;51.740;-1.314;2024-01-15T09:06:01;4;4;
36453;PMS5003;22478;51.740;-1.314;2024-01-15T09:08:28;3;3;
36453;PMS5003;22478;51.740;-1.314;2024-01-15T09:10:55;3;3;
36453;PMS5003;22478;51.740;-1.314;2024-01-15T09:13:23;3;1;
36453;PMS5003;22478;51.740;-1.314;2024-01-15T09:15:50;3;2;
36453;PMS5003;22478;51.740;-1.314;2024-01-15T09:18:18;3;3;
36453;PMS5003;22478;51.740;-1.314;2024-01-15T09:20:45;4;2;
36453;PMS5003;22478;51.740;-1.314;2024-01-15T09:23:12;7;3;
36453;PMS5003;22478;51.740;-1.314;2024-01-15T09:25:39;6;3;
36453;PMS5003;22478;51.740;-1.314;2024-01-15T09:28:07;3;3;
36453;PMS5003;22478;51.740;-1.314;2024-01-15T09:30:35;3;2;
36453;PMS5003;22478;51.740;-1.314;2024-01-15T09:33:02;2;1;
36453;PMS5003;22478;51.740;-1.314;2024-01-15T09:35:29;4;3;
36453;PMS5003;22478;51.740;-1.314;2024-01-15T09:37:56;2;2;
36453;PMS5003;22478;51.740;-1.314;2024-01-15T09:40:24;3;3;
36453;PMS5003;22478;51.740;-1.314;2024-01-15T09:42:56;6;3;
36453;PMS5003;22478;51.740;-1.314;2024-01-15T09:45:24;3;2;
36453;PMS5003;22478;51.740;-1.314;2024-01-15T09:47:51;3;2;
36453;PMS5003;22478;51.740;-1.314;2024-01-15T09:50:18;3;2;
36453;PMS5003;22478;51.740;-1.314;2024-01-15T09:52:46;4;2;
36453;PMS5003;22478;51.740;-1.314;2024-01-15T09:55:14;4;3;
36453;PMS5003;22478;51.740;-1.314;2024-01-15T09:57:43;4;3;
36453;PMS5003;22478;51.740;-1.314;2024-01-15T10:00:12;3;3;
36453;PMS5003;22478;51.740;-1.314;2024-01-15T10:02:40;5;3;
36453;PMS5003;22478;51.740;-1.314;2024-01-15T10:05:08;2;2;
36453;PMS5003;22478;51.740;-1.314;2024-01-15T10:07:35;4;3;
36453;PMS5003;22478;51.740;-1.314;2024-01-15T10:10:04;4;3;
36453;PMS5003;22478;51.740;-1.314;2024-01-15T10:12:32;3;3;
36453;PMS5003;22478;51.740;-1.314;2024-01-15T10:14:59;2;2;
36453;PMS5003;22478;51.740;-1.314;2024-01-15T10:17:28;1;1;
36453;PMS5003;22478;51.740;-1.314;2024-01-15T10:19:55;3;2;
36453;PMS5003;22478;51.740;-1.314;2024-01-15T10:22:22;1;1;
36453;PMS5003;22478;51.740;-1.314;2024-01-15T10:24:51;2;1;
36453;PMS5003;22478;51.740;-1.314;2024-01-15T10:27:18;2;0;
36453;PMS5003;22478;51.740;-1.314;2024-01-15T10:29:45;2;1;
36453;PMS5003;22478;51.740;-1.314;2024-01-15T10:32:13;1;1;
36453;PMS5003;22478;51.740;-1.314;2024-01-15T10:34:40;1;1;
36453;PMS5003;22478;51.740;-1.314;2024-01-15T10:37:08;1;1;
36453;PMS5003;22478;51.740;-1.314;2024-01-15T10:39:36;1;1;
36453;PMS5003;22478;51.740;-1.314;2024-01-15T10:42:03;1;1;
36453;PMS5003;22478;51.740;-1.314;2024-01-15T10:44:30;2;1;
36453;PMS5003;22478;51.740;-1.314;2024-01-15T10:46:58;2;1;
36453;PMS5003;22478;51.740;-1.314;2024-01-15T10:49:25;3;1;
36453;PMS5003;22478;51.740;-1.314;2024-01-15T10:51:53;0;0;
36453;PMS5003;22478;51.740;-1.314;2024-01-15T10:54:20;0;0;
36453;PMS5003;22478;51.740;-1.314;2024-01-15T10:56:49;1;1;
36453;PMS5003;22478;51.740;-1.314;2024-01-15T10:59:17;2;0;
36453;PMS5003;22478;51.740;-1.314;2024-01-15T11:01:47;2;2;
36453;PMS5003;22478;51.740;-1.314;2024-01-15T11:04:15;1;1;
36453;PMS5003;22478;51.740;-1.314;2024-01-15T11:06:44;0;0;
36453;PMS5003;22478;51.740;-1.314;2024-01-15T11:09:13;1;1;
36453;PMS5003;22478;51.740;-1.314;2024-01-15T11:11:41;1;1;
36453;PMS5003;22478;51.740;-1.314;2024-01-15T11:14:09;0;0;
36453;PMS5003;22478;51.740;-1.314;2024-01-15T11:16:57;1;1;
36453;PMS5003;22478;51.740;-1.314;2024-01-15T11:19:24;0;0;
36453;PMS5003;22478;51.740;-1.314;2024-01-15T11:21:51;0;0;
36453;PMS5003;22478;51.740;-1.314;2024-01-15T11:24:51;4;1;
36453;PMS5003;22478;51.740;-1.314;2024-01-15T11:27:18;0;0;
36453;PMS5003;22478;51.740;-1.314;2024-01-15T11:30:08;0;0;
36453;PMS5003;22478;51.740;-1.314;2024-01-15T11:32:35;2;0;
36453;PMS5003;22478;51.740;-1.314;2024-01-15T11:35:03;1;1;
36453;PMS5003;22478;51.740;-1.314;2024-01-15T11:37:57;1;1;
36453;PMS5003;22478;51.740;-1.314;2024-01-15T11:40:41;1;1;
36453;PMS5003;22478;51.740;-1.314;2024-01-15T11:43:08;4;1;
36453;PMS5003;22478;51.740;-1.314;2024-01-15T11:45:35;3;1;
36453;PMS5003;22478;51.740;-1.314;2024-01-15T11:48:09;6;3;
36453;PMS5003;22478;51.740;-1.314;2024-01-15T11:50:39;2;1;
36453;PMS5003;22478;51.740;-1.314;2024-01-15T11:53:10;2;1;
36453;PMS5003;22478;51.740;-1.314;2024-01-15T11:55:43;2;2;
36453;PMS5003;22478;51.740;-1.314;2024-01-15T11:58:11;2;2;
36453;PMS5003;22478;51.740;-1.314;2024-01-15T12:00:40;1;1;
36453;PMS5003;22478;51.740;-1.314;2024-01-15T12:03:08;3;1;
36453;PMS5003;22478;51.740;-1.314;2024-01-15T12:05:36;1;1;
36453;PMS5003;22478;51.740;-1.314;2024-01-15T12:08:04;2;2;
36453;PMS5003;22478;51.740;-1.314;2024-01-15T12:10:32;2;2;
36453;PMS5003;22478;51.740;-1.314;2024-01-15T12:12:59;2;2;
36453;PMS5003;22478;51.740;-1.314;2024-01-15T12:15:31;0;0;
36453;PMS5003;22478;51.740;-1.314;2024-01-15T12:18:00;2;1;
36453;PMS5003;22478;51.740;-1.314;2024-01-15T12:20:29;1;1;
36453;PMS5003;22478;51.740;-1.314;2024-01-15T12:22:58;1;1;
36453;PMS5003;22478;51.740;-1.314;2024-01-15T12:25:25;1;0;
36453;PMS5003;22478;51.740;-1.314;2024-01-15T12:27:54;1;1;
36453;PMS5003;22478;51.740;-1.314;2024-01-15T12:30:21;2;1;
36453;PMS5003;22478;51.740;-1.314;2024-01-15T12:32:49;1;1;
36453;PMS5003;22478;51.740;-1.314;2024-01-15T12:35:17;5;2;
36453;PMS5003;22478;51.740;-1.314;2024-01-15T12:37:45;1;1;
36453;PMS5003;22478;51.740;-1.314;2024-01-15T12:40:18;2;2;
36453;PMS5003;22478;51.740;-1.314;2024-01-15T12:42:46;1;1;
36453;PMS5003;22478;51.740;-1.314;2024-01-15T12:45:14;1;1;
36453;PMS5003;22478;51.740;-1.314;2024-01-15T12:47:42;0;0;
36453;PMS5003;22478;51.740;-1.314;2024-01-15T12:50:10;1;1;
36453;PMS5003;22478;51.740;-1.314;2024-01-15T12:52:40;1;1;
36453;PMS5003;22478;51.740;-1.314;2024-01-15T12:55:07;2;2;
36453;PMS5003;22478;51.740;-1.314;2024-01-15T12:57:35;1;1;
36453;PMS5003;22478;51.740;-1.314;2024-01-15T13:00:04;1;1;
36453;PMS5003;22478;51.740;-1.314;2024-01-15T13:02:32;2;2;
36453;PMS5003;22478;51.740;-1.314;2024-01-15T13:05:00;2;2;
36453;PMS5003;22478;51.740;-1.314;2024-01-15T13:07:30;1;1;
36453;PMS5003;22478;51.740;-1.314;2024-01-15T13:09:57;1;1;
36453;PMS5003;22478;51.740;-1.314;2024-01-15T13:12:24;1;1;
36453;PMS5003;22478;51.740;-1.314;2024-01-15T13:14:51;1;1;
36453;PMS5003;22478;51.740;-1.314;2024-01-15T13:17:18;1;1;
36453;PMS5003;22478;51.740;-1.314;2024-01-15T13:19:46;1;1;
36453;PMS5003;22478;51.740;-1.314;2024-01-15T13:22:13;2;1;
36453;PMS5003;22478;51.740;-1.314;2024-01-15T13:24:40;1;1;
36453;PMS5003;22478;51.740;-1.314;2024-01-15T13:27:07;2;1;
36453;PMS5003;22478;51.740;-1.314;2024-01-15T13:29:34;2;1;
36453;PMS5003;22478;51.740;-1.314;2024-01-15T13:32:01;1;1;
36453;PMS5003;22478;51.740;-1.314;2024-01-15T13:34:29;2;2;
36453;PMS5003;22478;51.740;-1.314;2024-01-15T13:36:57;1;1;
36453;PMS5003;22478;51.740;-1.314;2024-01-15T13:39:24;2;1;
36453;PMS5003;22478;51.740;-1.314;2024-01-15T13:41:51;1;1;
36453;PMS5003;22478;51.740;-1.314;2024-01-15T13:44:19;0;0;
36453;PMS5003;22478;51.740;-1.314;2024-01-15T13:46:46;2;1;
36453;PMS5003;22478;51.740;-1.314;2024-01-15T13:49:13;1;1;
36453;PMS5003;22478;51.740;-1.314;2024-01-15T13:51:40;1;1;
36453;PMS5003;22478;51.740;-1.314;2024-01-15T13:54:07;3;2;
36453;PMS5003;22478;51.740;-1.314;2024-01-15T13:56:35;2;1;
36453;PMS5003;22478;51.740;-1.314;2024-01-15T13:59:02;2;1;
36453;PMS5003;22478;51.740;-1.314;2024-01-15T14:01:29;1;1;
36453;PMS5003;22478;51.740;-1.314;2024-01-15T14:03:57;1;1;
36453;PMS5003;22478;51.740;-1.314;2024-01-15T14:06:24;0;0;
36453;PMS5003;22478;51.740;-1.314;2024-01-15T14:08:51;1;1;
36453;PMS5003;22478;51.740;-1.314;2024-01-15T14:11:19;1;1;
36453;PMS5003;22478;51.740;-1.314;2024-01-15T14:13:46;0;0;
36453;PMS5003;22478;51.740;-1.314;2024-01-15T14:16:13;0;0;
36453;PMS5003;22478;51.740;-1.314;2024-01-15T14:18:40;2;2;
36453;PMS5003;22478;51.740;-1.314;2024-01-15T14:21:08;1;0;
36453;PMS5003;22478;51.740;-1.314;2024-01-15T14:23:35;1;1;
36453;PMS5003;22478;51.740;-1.314;2024-01-15T14:26:02;1;1;
36453;PMS5003;22478;51.740;-1.314;2024-01-15T14:28:30;2;1;
36453;PMS5003;22478;51.740;-1.314;2024-01-15T14:30:57;1;1;
36453;PMS5003;22478;51.740;-1.314;2024-01-15T14:33:24;1;1;
36453;PMS5003;22478;51.740;-1.314;2024-01-15T14:35:52;0;0;
36453;PMS5003;22478;51.740;-1.314;2024-01-15T14:38:19;1;1;
36453;PMS5003;22478;51.740;-1.314;2024-01-15T14:40:46;0;0;
36453;PMS5003;22478;51.740;-1.314;2024-01-15T14:43:13;1;0;
36453;PMS5003;22478;51.740;-1.314;2024-01-15T14:45:41;0;0;
36453;PMS5003;22478;51.740;-1.314;2024-01-15T14:48:08;0;0;
36453;PMS5003;22478;51.740;-1.314;2024-01-15T14:50:35;1;1;
36453;PMS5003;22478;51.740;-1.314;2024-01-15T14:53:03;0;0;
36453;PMS5003;22478;51.740;-1.314;2024-01-15T14:55:30;0;0;
36453;PMS5003;22478;51.740;-1.314;2024-01-15T14:57:57;1;0;
36453;PMS5003;22478;51.740;-1.314;2024-01-15T15:00:26;1;1;
36453;PMS5003;22478;51.740;-1.314;2024-01-15T15:02:53;0;0;
36453;PMS5003;22478;51.740;-1.314;2024-01-15T15:05:20;1;1;
36453;PMS5003;22478;51.740;-1.314;2024-01-15T15:07:47;0;0;
36453;PMS5003;22478;51.740;-1.314;2024-01-15T15:10:15;2;0;
36453;PMS5003;22478;51.740;-1.314;2024-01-15T15:12:42;1;1;
36453;PMS5003;22478;51.740;-1.314;2024-01-15T15:15:09;0;0;
36453;PMS5003;22478;51.740;-1.314;2024-01-15T15:17:37;1;1;
36453;PMS5003;22478;51.740;-1.314;2024-01-15T15:20:05;2;1;
36453;PMS5003;22478;51.740;-1.314;2024-01-15T15:22:33;3;1;
36453;PMS5003;22478;51.740;-1.314;2024-01-15T15:25:00;3;1;
36453;PMS5003;22478;51.740;-1.314;2024-01-15T15:27:28;2;2;
36453;PMS5003;22478;51.740;-1.314;2024-01-15T15:29:55;2;0;
36453;PMS5003;22478;51.740;-1.314;2024-01-15T15:32:22;0;0;
36453;PMS5003;22478;51.740;-1.314;2024-01-15T15:34:50;1;1;
36453;PMS5003;22478;51.740;-1.314;2024-01-15T15:37:17;1;1;
36453;PMS5003;22478;51.740;-1.314;2024-01-15T15:39:44;2;0;
36453;PMS5003;22478;51.740;-1.314;2024-01-15T15:42:12;2;1;
36453;PMS5003;22478;51.740;-1.314;2024-01-15T15:44:39;2;2;
36453;PMS5003;22478;51.740;-1.314;2024-01-15T15:47:06;4;2;
36453;PMS5003;22478;51.740;-1.314;2024-01-15T15:49:34;0;0;
36453;PMS5003;22478;51.740;-1.314;2024-01-15T15:52:01;2;0;
36453;PMS5003;22478;51.740;-1.314;2024-01-15T15:54:28;0;0;
36453;PMS5003;22478;51.740;-1.314;2024-01-15T15:56:56;1;1;
36453;PMS5003;22478;51.740;-1.314;2024-01-15T15:59:23;0;0;
36453;PMS5003;22478;51.740;-1.314;2024-01-15T16:01:50;0;0;
36453;PMS5003;22478;51.740;-1.314;2024-01-15T16:04:19;2;1;
36453;PMS5003;22478;51.740;-1.314;2024-01-15T16:06:47;2;1;
36453;PMS5003;22478;51.740;-1.314;2024-01-15T16:09:14;2;2;
36453;PMS5003;22478;51.740;-1.314;2024-01-15T16:11:41;1;1;
36453;PMS5003;22478;51.740;-1.314;2024-01-15T16:14:09;3;2;
36453;PMS5003;22478;51.740;-1.314;2024-01-15T16:16:36;1;1;
36453;PMS5003;22478;51.740;-1.314;2024-01-15T16:19:03;1;1;
36453;PMS5003;22478;51.740;-1.314;2024-01-15T16:21:31;3;1;
36453;PMS5003;22478;51.740;-1.314;2024-01-15T16:23:58;2;1;
36453;PMS5003;22478;51.740;-1.314;2024-01-15T16:26:25;2;2;
36453;PMS5003;22478;51.740;-1.314;2024-01-15T16:28:53;1;1;
36453;PMS5003;22478;51.740;-1.314;2024-01-15T16:31:20;2;2;
36453;PMS5003;22478;51.740;-1.314;2024-01-15T16:33:47;4;2;
36453;PMS5003;22478;51.740;-1.314;2024-01-15T16:36:15;3;1;